Time,TemperatureF,DewpointF,PressureIn,WindDirection,WindDirectionDegrees,WindSpeedMPH,WindSpeedGustMPH,Humidity,HourlyPrecipIn,Conditions,Clouds,dailyrainin,SolarRadiationWatts/m^2,SoftwareType,DateUTC
2013-02-04 00:02:00,59.0,25.0,30.02,South,183,7.0,7.0,27,0.00,,,0.00,-33.000000,,2013-02-04 06:02:00,
2013-02-04 00:11:00,59.0,25.0,30.02,South,183,7.0,7.0,27,0.00,,,0.00,-33.000000,,2013-02-04 06:11:00,
2013-02-04 00:32:00,58.0,26.0,29.99,South,185,5.0,7.0,29,0.00,,,0.00,-29.000000,,2013-02-04 06:32:00,
2013-02-04 00:42:00,58.0,26.0,29.99,South,185,5.0,7.0,29,0.00,,,0.00,-29.000000,,2013-02-04 06:42:00,
2013-02-04 00:52:00,58.0,26.0,29.99,South,185,5.0,7.0,29,0.00,,,0.00,-29.000000,,2013-02-04 06:52:00,
2013-02-04 01:02:00,58.0,26.0,29.99,South,185,5.0,7.0,29,0.00,,,0.00,-29.000000,,2013-02-04 07:02:00,
2013-02-04 01:11:00,58.0,26.0,29.99,South,185,5.0,7.0,29,0.00,,,0.00,-29.000000,,2013-02-04 07:11:00,
2013-02-04 01:32:00,58.0,25.0,29.99,South,183,5.0,7.0,28,0.00,,,0.00,-16.000000,,2013-02-04 07:32:00,
2013-02-04 01:42:00,58.0,25.0,29.99,South,183,5.0,7.0,28,0.00,,,0.00,-16.000000,,2013-02-04 07:42:00,
2013-02-04 01:52:00,58.0,25.0,29.99,South,183,5.0,7.0,28,0.00,,,0.00,-16.000000,,2013-02-04 07:52:00,
2013-02-04 02:01:00,58.0,25.0,29.99,South,183,5.0,7.0,28,0.00,,,0.00,-16.000000,,2013-02-04 08:01:00,
2013-02-04 02:11:00,58.0,25.0,29.99,South,183,5.0,7.0,28,0.00,,,0.00,-16.000000,,2013-02-04 08:11:00,
2013-02-04 02:42:00,58.0,29.0,29.96,South,183,7.0,7.0,33,0.00,,,0.00,-24.000000,,2013-02-04 08:42:00,
2013-02-04 02:52:00,58.0,29.0,29.96,South,183,7.0,7.0,33,0.00,,,0.00,-24.000000,,2013-02-04 08:52:00,
2013-02-04 03:02:00,58.0,29.0,29.96,South,183,7.0,7.0,33,0.00,,,0.00,-24.000000,,2013-02-04 09:02:00,
2013-02-04 03:11:00,58.0,29.0,29.96,South,183,7.0,7.0,33,0.00,,,0.00,-24.000000,,2013-02-04 09:11:00,
2013-02-04 03:42:00,58.0,33.0,29.95,South,184,9.0,10.0,39,0.00,,,0.00,-20.000000,,2013-02-04 09:42:00,
2013-02-04 03:52:00,58.0,33.0,29.95,South,184,9.0,10.0,39,0.00,,,0.00,-20.000000,,2013-02-04 09:52:00,
2013-02-04 04:01:00,58.0,33.0,29.95,South,184,9.0,10.0,39,0.00,,,0.00,-20.000000,,2013-02-04 10:01:00,
2013-02-04 04:11:00,58.0,33.0,29.95,South,184,9.0,10.0,39,0.00,,,0.00,-20.000000,,2013-02-04 10:11:00,
2013-02-04 04:41:00,57.0,37.0,29.92,South,184,7.0,7.0,46,0.00,,,0.00,-26.000000,,2013-02-04 10:41:00,
2013-02-04 04:52:00,57.0,37.0,29.92,South,184,7.0,7.0,46,0.00,,,0.00,-26.000000,,2013-02-04 10:52:00,
2013-02-04 05:02:00,57.0,37.0,29.92,South,184,7.0,7.0,46,0.00,,,0.00,-26.000000,,2013-02-04 11:02:00,
2013-02-04 05:11:00,57.0,37.0,29.92,South,184,7.0,7.0,46,0.00,,,0.00,-26.000000,,2013-02-04 11:11:00,
2013-02-04 05:32:00,57.0,40.0,29.92,South,183,5.0,9.0,52,0.00,,,-99.99,-16.000000,,2013-02-04 11:32:00,
2013-02-04 05:42:00,57.0,40.0,29.92,South,183,5.0,9.0,52,0.00,,,-99.99,-16.000000,,2013-02-04 11:42:00,
2013-02-04 05:52:00,57.0,40.0,29.92,South,183,5.0,9.0,52,0.00,,,-99.99,-16.000000,,2013-02-04 11:52:00,
2013-02-04 06:02:00,57.0,40.0,29.92,South,183,5.0,9.0,52,0.00,,,-99.99,-16.000000,,2013-02-04 12:02:00,
2013-02-04 06:12:00,57.0,40.0,29.92,South,183,5.0,9.0,52,0.00,,,-99.99,-16.000000,,2013-02-04 12:12:00,
2013-02-04 06:42:00,57.0,41.0,29.92,South,184,7.0,7.0,56,0.00,,,-99.99,-24.000000,,2013-02-04 12:42:00,
2013-02-04 06:53:00,57.0,41.0,29.92,South,184,7.0,7.0,56,0.00,,,-99.99,-24.000000,,2013-02-04 12:53:00,
2013-02-04 07:02:00,57.0,41.0,29.92,South,184,7.0,7.0,56,0.00,,,-99.99,-24.000000,,2013-02-04 13:02:00,
2013-02-04 07:12:00,57.0,41.0,29.92,South,184,7.0,7.0,56,0.00,,,-99.99,-24.000000,,2013-02-04 13:12:00,
2013-02-04 07:42:00,56.0,44.0,29.92,South,185,9.0,9.0,65,0.00,,,0.00,-139.000000,,2013-02-04 13:42:00,
2013-02-04 07:52:00,56.0,44.0,29.92,South,185,9.0,9.0,65,0.00,,,0.00,-139.000000,,2013-02-04 13:52:00,
2013-02-04 08:03:00,56.0,44.0,29.92,South,185,9.0,9.0,65,0.00,,,0.00,-139.000000,,2013-02-04 14:03:00,
2013-02-04 08:12:00,56.0,44.0,29.92,South,185,9.0,9.0,65,0.00,,,0.00,-139.000000,,2013-02-04 14:12:00,
2013-02-04 08:32:00,56.0,49.0,29.91,South,184,9.0,10.0,78,0.00,,,0.00,8.000000,,2013-02-04 14:32:00,
2013-02-04 08:42:00,56.0,49.0,29.91,South,184,9.0,10.0,78,0.00,,,0.00,8.000000,,2013-02-04 14:42:00,
2013-02-04 08:52:00,56.0,49.0,29.91,South,184,9.0,10.0,78,0.00,,,0.00,8.000000,,2013-02-04 14:52:00,
2013-02-04 09:03:00,56.0,49.0,29.91,South,184,9.0,10.0,78,0.00,,,0.00,8.000000,,2013-02-04 15:03:00,
2013-02-04 09:12:00,56.0,49.0,29.91,South,184,9.0,10.0,78,0.00,,,0.00,8.000000,,2013-02-04 15:12:00,
2013-02-04 09:33:00,58.0,51.0,29.92,South,183,9.0,9.0,80,0.00,,,0.00,36.000000,,2013-02-04 15:33:00,
2013-02-04 09:43:00,58.0,51.0,29.92,South,183,9.0,9.0,80,0.00,,,0.00,36.000000,,2013-02-04 15:43:00,
2013-02-04 09:53:00,58.0,51.0,29.92,South,183,9.0,9.0,80,0.00,,,0.00,36.000000,,2013-02-04 15:53:00,
2013-02-04 10:03:00,58.0,51.0,29.92,South,183,9.0,9.0,80,0.00,,,0.00,36.000000,,2013-02-04 16:03:00,
2013-02-04 10:11:00,58.0,51.0,29.92,South,183,9.0,9.0,80,0.00,,,0.00,36.000000,,2013-02-04 16:11:00,
2013-02-04 11:52:00,63.0,52.0,29.90,South,180,9.0,12.0,66,0.00,,,0.00,404.000000,,2013-02-04 17:52:00,
2013-02-04 12:03:00,63.0,52.0,29.90,South,180,9.0,12.0,66,0.00,,,0.00,404.000000,,2013-02-04 18:03:00,
2013-02-04 12:11:00,63.0,52.0,29.90,South,180,9.0,12.0,66,0.00,,,0.00,404.000000,,2013-02-04 18:11:00,
2013-02-04 12:32:00,65.0,52.0,29.89,South,181,9.0,9.0,63,0.00,,,0.00,122.000000,,2013-02-04 18:32:00,
2013-02-04 12:42:00,65.0,52.0,29.89,South,181,9.0,9.0,63,0.00,,,0.00,122.000000,,2013-02-04 18:42:00,
2013-02-04 12:52:00,65.0,52.0,29.89,South,181,9.0,9.0,63,0.00,,,0.00,122.000000,,2013-02-04 18:52:00,
2013-02-04 13:02:00,65.0,52.0,29.89,South,181,9.0,9.0,63,0.00,,,0.00,122.000000,,2013-02-04 19:02:00,
2013-02-04 13:11:00,65.0,52.0,29.89,South,181,9.0,9.0,63,0.00,,,0.00,122.000000,,2013-02-04 19:11:00,
2013-02-04 13:42:00,69.0,52.0,29.86,South,177,7.0,10.0,55,0.00,,,0.00,388.000000,,2013-02-04 19:42:00,
2013-02-04 13:52:00,69.0,52.0,29.86,South,177,7.0,10.0,55,0.00,,,0.00,388.000000,,2013-02-04 19:52:00,
2013-02-04 14:02:00,69.0,52.0,29.86,South,177,7.0,10.0,55,0.00,,,0.00,388.000000,,2013-02-04 20:02:00,
2013-02-04 14:12:00,69.0,52.0,29.86,South,177,7.0,10.0,55,0.00,,,0.00,388.000000,,2013-02-04 20:12:00,
2013-02-04 16:42:00,72.0,53.0,29.80,South,176,5.0,5.0,51,0.00,,,0.00,146.000000,,2013-02-04 22:42:00,
2013-02-04 16:52:00,72.0,53.0,29.80,South,176,5.0,5.0,51,0.00,,,0.00,146.000000,,2013-02-04 22:52:00,
2013-02-04 17:01:00,72.0,53.0,29.80,South,176,5.0,5.0,51,0.00,,,0.00,146.000000,,2013-02-04 23:01:00,
2013-02-04 17:11:00,72.0,53.0,29.80,South,176,5.0,5.0,51,0.00,,,0.00,146.000000,,2013-02-04 23:11:00,
2013-02-04 17:42:00,70.0,52.0,29.82,South,176,5.0,7.0,52,0.00,,,0.00,-25.000000,,2013-02-04 23:42:00,
2013-02-04 17:52:00,70.0,52.0,29.82,South,176,5.0,7.0,52,0.00,,,0.00,-25.000000,,2013-02-04 23:52:00,
2013-02-04 18:01:00,70.0,52.0,29.82,South,176,5.0,7.0,52,0.00,,,0.00,-25.000000,,2013-02-05 00:01:00,
2013-02-04 18:11:00,70.0,52.0,29.82,South,176,5.0,7.0,52,0.00,,,0.00,-25.000000,,2013-02-05 00:11:00,
2013-02-04 18:42:00,67.0,53.0,29.83,South,179,5.0,7.0,61,0.00,,,0.00,-53.000000,,2013-02-05 00:42:00,
2013-02-04 18:52:00,67.0,53.0,29.83,South,179,5.0,7.0,61,0.00,,,0.00,-53.000000,,2013-02-05 00:52:00,
2013-02-04 19:02:00,67.0,53.0,29.83,South,179,5.0,7.0,61,0.00,,,0.00,-53.000000,,2013-02-05 01:02:00,
2013-02-04 19:11:00,67.0,53.0,29.83,South,179,5.0,7.0,61,0.00,,,0.00,-53.000000,,2013-02-05 01:11:00,
2013-02-04 19:42:00,65.0,53.0,29.85,South,180,5.0,5.0,66,0.00,,,0.00,-52.000000,,2013-02-05 01:42:00,
2013-02-04 19:52:00,65.0,53.0,29.85,South,180,5.0,5.0,66,0.00,,,0.00,-52.000000,,2013-02-05 01:52:00,
2013-02-04 20:01:00,65.0,53.0,29.85,South,180,5.0,5.0,66,0.00,,,0.00,-52.000000,,2013-02-05 02:01:00,
2013-02-04 20:11:00,65.0,53.0,29.85,South,180,5.0,5.0,66,0.00,,,0.00,-52.000000,,2013-02-05 02:11:00,
2013-02-04 20:42:00,63.0,54.0,29.87,South,182,5.0,5.0,71,0.00,,,0.00,-55.000000,,2013-02-05 02:42:00,
2013-02-04 20:52:00,63.0,54.0,29.87,South,182,5.0,5.0,71,0.00,,,0.00,-55.000000,,2013-02-05 02:52:00,
2013-02-04 21:02:00,63.0,54.0,29.87,South,182,5.0,5.0,71,0.00,,,0.00,-55.000000,,2013-02-05 03:02:00,
2013-02-04 21:11:00,63.0,54.0,29.87,South,182,5.0,5.0,71,0.00,,,0.00,-55.000000,,2013-02-05 03:11:00,
2013-02-04 21:52:00,61.0,54.0,29.89,South,182,5.0,5.0,77,0.00,,,0.00,-46.000000,,2013-02-05 03:52:00,
2013-02-04 22:01:00,61.0,54.0,29.89,South,182,5.0,5.0,77,0.00,,,0.00,-46.000000,,2013-02-05 04:01:00,
2013-02-04 22:11:00,61.0,54.0,29.89,South,182,5.0,5.0,77,0.00,,,0.00,-46.000000,,2013-02-05 04:11:00,
2013-02-04 22:32:00,60.0,55.0,29.90,South,183,2.0,2.0,83,0.00,,,-99.99,-36.000000,,2013-02-05 04:32:00,
2013-02-04 22:42:00,60.0,55.0,29.90,South,183,2.0,2.0,83,0.00,,,-99.99,-36.000000,,2013-02-05 04:42:00,
2013-02-04 22:52:00,60.0,55.0,29.90,South,183,2.0,2.0,83,0.00,,,-99.99,-36.000000,,2013-02-05 04:52:00,
2013-02-04 23:02:00,60.0,55.0,29.90,South,183,2.0,2.0,83,0.00,,,-99.99,-36.000000,,2013-02-05 05:02:00,
2013-02-04 23:11:00,60.0,55.0,29.90,South,183,2.0,2.0,83,0.00,,,-99.99,-36.000000,,2013-02-05 05:11:00,
2013-02-04 23:32:00,58.0,55.0,29.91,South,184,2.0,2.0,90,0.00,,,0.00,-28.000000,,2013-02-05 05:32:00,
2013-02-04 23:42:00,58.0,55.0,29.91,South,184,2.0,2.0,90,0.00,,,0.00,-28.000000,,2013-02-05 05:42:00,
2013-02-04 23:52:00,58.0,55.0,29.91,South,184,2.0,2.0,90,0.00,,,0.00,-28.000000,,2013-02-05 05:52:00,